createdAt,value
2022-12-18T00:00:22.006Z,-9.87
2022-12-18T00:05:00.286Z,-9.89
2022-12-18T00:09:59.003Z,-9.87
2022-12-18T00:14:58.505Z,-9.79
2022-12-18T00:19:58.053Z,-9.78
2022-12-18T00:24:56.727Z,-9.85
2022-12-18T00:29:55.391Z,-9.91
2022-12-18T00:34:54.847Z,-9.93
2022-12-18T00:39:54.240Z,-9.99
2022-12-18T00:44:54.132Z,-10.05
2022-12-18T00:49:54.381Z,-10.04
2022-12-18T00:54:53.901Z,-10.02
2022-12-18T00:58:55.821Z,-10.02
2022-12-18T01:03:54.089Z,-10.05
2022-12-18T01:08:53.022Z,-10.09
2022-12-18T01:13:52.961Z,-10.14
2022-12-18T01:18:52.739Z,-10.16
2022-12-18T01:23:51.639Z,-10.14
2022-12-18T01:28:50.508Z,-10.1
2022-12-18T01:33:50.133Z,-10.14
2022-12-18T01:38:49.514Z,-10.21
2022-12-18T01:43:50.568Z,-10.26
2022-12-18T01:48:48.230Z,-10.24
2022-12-18T01:53:47.466Z,-10.21
2022-12-18T01:58:33.099Z,-10.2
2022-12-18T02:03:33.089Z,-10.18
2022-12-18T02:08:32.964Z,-10.17
2022-12-18T02:13:31.128Z,-10.22
2022-12-18T02:18:30.332Z,-10.29
2022-12-18T02:23:29.754Z,-10.35
2022-12-18T02:28:29.710Z,-10.37
2022-12-18T02:33:28.322Z,-10.38
2022-12-18T02:38:27.995Z,-10.41
2022-12-18T02:43:28.151Z,-10.43
2022-12-18T02:48:25.972Z,-10.47
2022-12-18T02:53:25.356Z,-10.54
2022-12-18T02:58:24.895Z,-10.62
2022-12-18T02:59:45.920Z,-10.62
2022-12-18T03:04:44.630Z,-10.65
2022-12-18T03:09:43.309Z,-10.69
2022-12-18T03:14:42.608Z,-10.7
2022-12-18T03:19:42.117Z,-10.68
2022-12-18T03:24:42.210Z,-10.67
2022-12-18T03:29:40.637Z,-10.65
2022-12-18T03:34:39.866Z,-10.62
2022-12-18T03:39:39.124Z,-10.52
2022-12-18T03:44:39.241Z,-10.28
2022-12-18T03:49:39.046Z,-10.06
2022-12-18T03:54:36.887Z,-9.89
2022-12-18T03:58:49.515Z,-9.75
2022-12-18T04:03:49.306Z,-9.6
2022-12-18T04:08:49.286Z,-9.6
2022-12-18T04:13:48.546Z,-9.72
2022-12-18T04:18:47.913Z,-9.97
2022-12-18T04:23:47.818Z,-10.13
2022-12-18T04:28:46.106Z,-10.3
2022-12-18T04:33:46.541Z,-10.48
2022-12-18T04:38:45.741Z,-10.62
2022-12-18T04:43:45.846Z,-10.72
2022-12-18T04:48:44.234Z,-10.78
2022-12-18T04:53:43.715Z,-10.73
2022-12-18T04:58:42.571Z,-10.58
2022-12-18T05:03:42.599Z,-10.25
2022-12-18T05:08:42.023Z,-9.79
2022-12-18T05:13:41.644Z,-9.57
2022-12-18T05:18:39.889Z,-9.35
2022-12-18T05:23:40.024Z,-9.2
2022-12-18T05:28:39.346Z,-9.07
2022-12-18T05:33:39.850Z,-8.97
2022-12-18T05:38:37.439Z,-8.89
2022-12-18T05:43:37.220Z,-8.8
2022-12-18T05:48:36.175Z,-8.71
2022-12-18T05:53:34.826Z,-8.62
2022-12-18T05:58:35.043Z,-8.53
2022-12-18T05:59:56.030Z,-8.49
2022-12-18T06:04:56.135Z,-8.42
2022-12-18T06:09:54.514Z,-8.32
2022-12-18T06:14:53.831Z,-8.25
2022-12-18T06:19:52.947Z,-8.18
2022-12-18T06:24:52.977Z,-8.12
2022-12-18T06:29:52.530Z,-8.1
2022-12-18T06:34:50.668Z,-8.07
2022-12-18T06:39:50.071Z,-8.02
2022-12-18T06:44:50.105Z,-7.98
2022-12-18T06:49:49.615Z,-7.96
2022-12-18T06:54:48.603Z,-7.93
2022-12-18T06:58:51.022Z,-7.92
2022-12-18T07:03:50.437Z,-7.91
2022-12-18T07:08:49.718Z,-7.89
2022-12-18T07:13:49.010Z,-7.83
2022-12-18T07:18:47.945Z,-7.82
2022-12-18T07:23:47.248Z,-7.9
2022-12-18T07:28:46.914Z,-7.92
2022-12-18T07:33:46.599Z,-7.91
2022-12-18T07:38:46.947Z,-7.9
2022-12-18T07:43:46.119Z,-7.87
2022-12-18T07:48:49.655Z,-7.82
2022-12-18T07:53:44.717Z,-7.76
2022-12-18T07:58:43.740Z,-7.71
2022-12-18T08:03:43.188Z,-7.66
2022-12-18T08:08:42.872Z,-7.6
2022-12-18T08:13:43.149Z,-7.55
2022-12-18T08:18:41.798Z,-7.52
2022-12-18T08:23:42.901Z,-7.51
2022-12-18T08:28:40.189Z,-7.55
2022-12-18T08:33:39.902Z,-7.56
2022-12-18T08:38:39.774Z,-7.6
2022-12-18T08:43:37.327Z,-7.58
2022-12-18T08:48:36.467Z,-7.63
2022-12-18T08:53:36.774Z,-7.63
2022-12-18T08:58:37.314Z,-7.58
2022-12-18T08:59:57.478Z,-7.6
2022-12-18T09:04:57.681Z,-7.56
2022-12-18T09:09:56.115Z,-7.52
2022-12-18T09:14:57.035Z,-7.48
2022-12-18T09:19:54.621Z,-7.4
2022-12-18T09:24:55.307Z,-7.28
2022-12-18T09:29:54.940Z,-7.12
2022-12-18T09:34:54.957Z,-6.95
2022-12-18T09:39:52.860Z,-6.8
2022-12-18T09:44:52.493Z,-6.77
2022-12-18T09:49:51.971Z,-6.76
2022-12-18T09:54:52.073Z,-6.74
2022-12-18T09:59:22.064Z,-6.67
2022-12-18T10:04:22.367Z,-6.61
2022-12-18T10:09:21.638Z,-6.59
2022-12-18T10:14:21.003Z,-6.51
2022-12-18T10:19:20.418Z,-6.33
2022-12-18T10:24:20.811Z,-6.17
2022-12-18T10:29:21.297Z,-5.89
2022-12-18T10:34:18.623Z,-5.55
2022-12-18T10:39:18.786Z,-5.22
2022-12-18T10:44:18.237Z,-4.82
2022-12-18T10:49:07.178Z,-4.6
2022-12-18T10:54:06.672Z,-4.44
2022-12-18T10:59:00.007Z,-4.04
2022-12-18T11:04:02.296Z,-3.96
2022-12-18T11:08:59.024Z,-3.85
2022-12-18T11:13:59.595Z,-3.66
2022-12-18T11:18:59.565Z,-3.72
2022-12-18T11:23:59.123Z,-4.25
2022-12-18T11:28:58.107Z,-4.44
2022-12-18T11:34:20.051Z,-4.66
2022-12-18T11:38:56.725Z,-4.77
2022-12-18T11:43:56.126Z,-4.71
2022-12-18T11:48:54.808Z,-4.69
2022-12-18T11:53:53.575Z,-4.58
2022-12-18T11:58:53.079Z,-4.41
2022-12-18T12:03:52.687Z,-4.34
2022-12-18T12:08:52.676Z,-4.32
2022-12-18T12:13:51.141Z,-4.33
2022-12-18T12:18:50.110Z,-4.36
2022-12-18T12:23:49.473Z,-4.36
2022-12-18T12:28:49.389Z,-4.23
2022-12-18T12:33:48.881Z,-4.08
2022-12-18T12:38:51.788Z,-3.96
2022-12-18T12:43:50.772Z,-3.76
2022-12-18T12:48:46.056Z,-3.56
2022-12-18T12:53:47.222Z,-3.29
2022-12-18T12:58:45.136Z,-3.25
2022-12-18T13:03:45.067Z,-3.16
2022-12-18T13:08:43.855Z,-3.22
2022-12-18T13:13:42.343Z,-3.16
2022-12-18T13:18:41.901Z,-3.02
2022-12-18T13:23:41.275Z,-3.17
2022-12-18T13:28:40.365Z,-3.46
2022-12-18T13:33:50.963Z,-3.61
2022-12-18T13:38:38.038Z,-3.6
2022-12-18T13:43:37.771Z,-3.57
2022-12-18T13:48:36.722Z,-3.58
2022-12-18T13:53:36.640Z,-3.57
2022-12-18T13:58:34.921Z,-3.57
2022-12-18T13:59:55.375Z,-3.59
2022-12-18T14:04:54.935Z,-3.6
2022-12-18T14:10:01.849Z,-3.59
2022-12-18T14:14:55.121Z,-3.6
2022-12-18T14:19:52.849Z,-3.62
2022-12-18T14:24:51.899Z,-3.74
2022-12-18T14:29:51.529Z,-3.82
2022-12-18T14:34:51.844Z,-3.91
2022-12-18T14:39:49.928Z,-3.94
2022-12-18T14:45:12.733Z,-4.04
2022-12-18T14:49:49.496Z,-4.12
2022-12-18T14:54:49.439Z,-4.23
2022-12-18T14:59:24.165Z,-4.29
2022-12-18T15:04:19.520Z,-4.37
2022-12-18T15:09:19.144Z,-4.46
2022-12-18T15:14:19.740Z,-4.57
2022-12-18T15:19:06.617Z,-4.65
2022-12-18T15:24:06.261Z,-4.73
2022-12-18T15:29:05.515Z,-4.83
2022-12-18T15:34:05.632Z,-4.94
2022-12-18T15:39:04.956Z,-5.04
2022-12-18T15:44:03.122Z,-5.14
2022-12-18T15:49:03.036Z,-5.18
2022-12-18T15:54:02.316Z,-5.2
2022-12-18T15:58:16.345Z,-5.21
2022-12-18T16:03:23.850Z,-5.22
2022-12-18T16:08:23.514Z,-5.19
2022-12-18T16:13:24.342Z,-5.18
2022-12-18T16:18:21.583Z,-5.22
2022-12-18T16:23:21.565Z,-5.22
2022-12-18T16:28:21.897Z,-5.21
2022-12-18T16:33:19.141Z,-5.17
2022-12-18T16:38:19.036Z,-5.14
2022-12-18T16:43:18.732Z,-5.08
2022-12-18T16:48:07.206Z,-5.02
2022-12-18T16:53:06.490Z,-4.98
2022-12-18T16:58:05.546Z,-4.96
2022-12-18T16:59:26.634Z,-4.96
2022-12-18T17:04:26.736Z,-4.96
2022-12-18T17:09:25.121Z,-4.98
2022-12-18T17:14:24.682Z,-4.98
2022-12-18T17:19:23.743Z,-5.01
2022-12-18T17:24:23.676Z,-5.03
2022-12-18T17:29:24.368Z,-5.05
2022-12-18T17:34:22.293Z,-5.07
2022-12-18T17:39:21.732Z,-5.07
2022-12-18T17:44:21.738Z,-5.09
2022-12-18T17:49:22.482Z,-5.07
2022-12-18T17:54:20.098Z,-5.05
2022-12-18T17:59:19.947Z,-5.02
2022-12-18T18:04:33.561Z,-5
2022-12-18T18:09:20.295Z,-5
2022-12-18T18:14:07.950Z,-5.03
2022-12-18T18:19:07.705Z,-5.09
2022-12-18T18:24:07.841Z,-5.13
2022-12-18T18:29:06.126Z,-5.15
2022-12-18T18:34:05.488Z,-5.17
2022-12-18T18:39:04.668Z,-5.19
2022-12-18T18:44:04.688Z,-5.19
2022-12-18T18:49:04.593Z,-5.19
2022-12-18T18:54:01.679Z,-5.14
2022-12-18T18:58:49.963Z,-5.1
2022-12-18T19:03:50.060Z,-5.07
2022-12-18T19:08:50.266Z,-5.09
2022-12-18T19:13:47.182Z,-5.1
2022-12-18T19:18:46.512Z,-5.09
2022-12-18T19:23:45.999Z,-5.08
2022-12-18T19:28:46.062Z,-5.07
2022-12-18T19:33:45.111Z,-5.05
2022-12-18T19:38:45.486Z,-5.02
2022-12-18T19:43:44.105Z,-4.96
2022-12-18T19:48:44.423Z,-4.94
2022-12-18T19:53:41.155Z,-4.92
2022-12-18T19:58:40.636Z,-4.92
2022-12-18T20:03:40.037Z,-4.92
2022-12-18T20:08:39.827Z,-4.91
2022-12-18T20:13:38.750Z,-4.87
2022-12-18T20:18:37.594Z,-4.84
2022-12-18T20:23:37.232Z,-4.83
2022-12-18T20:28:37.035Z,-4.81
2022-12-18T20:33:36.873Z,-4.79
2022-12-18T20:38:35.433Z,-4.8
2022-12-18T20:43:34.643Z,-4.8
2022-12-18T20:48:34.481Z,-4.77
2022-12-18T20:53:33.571Z,-4.75
2022-12-18T20:58:31.421Z,-4.71
2022-12-18T20:59:52.192Z,-4.69
2022-12-18T21:04:51.731Z,-4.69
2022-12-18T21:09:51.284Z,-4.67
2022-12-18T21:14:51.256Z,-4.63
2022-12-18T21:19:49.112Z,-4.58
2022-12-18T21:24:48.844Z,-4.53
2022-12-18T21:29:48.386Z,-4.53
2022-12-18T21:34:48.424Z,-4.52
2022-12-18T21:39:47.231Z,-4.46
2022-12-18T21:44:46.986Z,-4.42
2022-12-18T21:49:46.691Z,-4.4
2022-12-18T21:54:44.417Z,-4.35
2022-12-18T21:59:15.611Z,-4.29
2022-12-18T22:04:15.500Z,-4.25
2022-12-18T22:09:15.291Z,-4.23
2022-12-18T22:14:23.556Z,-4.21
2022-12-18T22:19:23.312Z,-4.19
2022-12-18T22:24:23.890Z,-4.17
2022-12-18T22:29:24.307Z,-4.16
2022-12-18T22:34:23.116Z,-4.13
2022-12-18T22:39:21.532Z,-4.09
2022-12-18T22:44:21.305Z,-4.07
2022-12-18T22:49:19.392Z,-4.07
2022-12-18T22:54:18.981Z,-4.06
2022-12-18T22:58:55.946Z,-4.04
2022-12-18T23:03:56.097Z,-4.03
2022-12-18T23:08:56.071Z,-4.01
2022-12-18T23:13:55.082Z,-3.99
2022-12-18T23:18:54.126Z,-3.96
2022-12-18T23:23:57.998Z,-3.92
2022-12-18T23:28:52.670Z,-3.88
2022-12-18T23:33:52.867Z,-3.83
2022-12-18T23:38:52.616Z,-3.79
2022-12-18T23:43:51.112Z,-3.77
2022-12-18T23:48:50.023Z,-3.75
2022-12-18T23:53:49.612Z,-3.71
2022-12-18T23:58:50.275Z,-3.69
